WJA2138 CYVR-MDPC
Flight info
| Callsign | WJA2138 |
|---|---|
| Flight time | N/A |
| Altitude | 40000 |
| Route | CYVR RNDDY BAXTA KARAS RUGTE PAHBY OWENT SHRKS NUCAR BRRGO GTK BEREL AGNAL VOLID RIKIK MDPC |
| Aircraft | B789/H-V/N |
Departure
| Time | 2026-05-05 18:53 |
|---|---|
| Airport | Vancouver International Airport (CYVR) |
Arrival
| Time | N/A |
|---|---|
| Airport | Punta Cana International Airport (MDPC) |
| Time | Latitude | Longitude | Altitude | Speed | Heading |
|---|---|---|---|---|---|
| 2026-05-05 17:27 | 49.19548 | -123.18116 | 9 ft | 0 kts | 174° |
| 2026-05-05 17:28 | 49.19547 | -123.18116 | 27 ft | 0 kts | 174° |
| 2026-05-05 18:33 | 49.19549 | -123.18116 | 28 ft | 2 kts | 174° |
| 2026-05-05 18:33 | 49.19567 | -123.18119 | 28 ft | 3 kts | 174° |
| 2026-05-05 18:34 | 49.19584 | -123.18121 | 28 ft | 3 kts | 174° |
| 2026-05-05 18:34 | 49.19604 | -123.18124 | 27 ft | 3 kts | 179° |
| 2026-05-05 18:34 | 49.19624 | -123.18120 | 27 ft | 3 kts | 202° |
| 2026-05-05 18:34 | 49.19637 | -123.18109 | 26 ft | 0 kts | 219° |
| 2026-05-05 18:37 | 49.19634 | -123.18113 | 28 ft | 1 kts | 220° |
| 2026-05-05 18:38 | 49.19628 | -123.18121 | 28 ft | 2 kts | 220° |
| 2026-05-05 18:38 | 49.19618 | -123.18134 | 28 ft | 2 kts | 221° |
| 2026-05-05 18:38 | 49.19605 | -123.18153 | 28 ft | 3 kts | 223° |
| 2026-05-05 18:38 | 49.19589 | -123.18176 | 28 ft | 4 kts | 224° |
| 2026-05-05 18:39 | 49.19581 | -123.18188 | 28 ft | 0 kts | 225° |
| 2026-05-05 18:39 | 49.19592 | -123.18171 | 28 ft | 6 kts | 225° |
| 2026-05-05 18:39 | 49.19644 | -123.18091 | 27 ft | 14 kts | 226° |
| 2026-05-05 18:40 | 49.19659 | -123.18067 | 27 ft | 0 kts | 227° |
| 2026-05-05 18:40 | 49.19656 | -123.18072 | 28 ft | 1 kts | 227° |
| 2026-05-05 18:40 | 49.19655 | -123.18073 | 28 ft | 0 kts | 227° |
| 2026-05-05 18:43 | 49.19648 | -123.18091 | 26 ft | 3 kts | 245° |
| 2026-05-05 18:43 | 49.19645 | -123.18131 | 28 ft | 5 kts | 269° |
| 2026-05-05 18:43 | 49.19653 | -123.18184 | 28 ft | 5 kts | 292° |
| 2026-05-05 18:44 | 49.19658 | -123.18197 | 28 ft | 0 kts | 296° |
| 2026-05-05 18:45 | 49.19661 | -123.18207 | 28 ft | 5 kts | 296° |
| 2026-05-05 18:45 | 49.19683 | -123.18324 | 28 ft | 17 kts | 281° |
| 2026-05-05 18:45 | 49.19706 | -123.18509 | 28 ft | 17 kts | 281° |
| 2026-05-05 18:45 | 49.19710 | -123.18538 | 28 ft | 0 kts | 280° |
| 2026-05-05 18:46 | 49.19712 | -123.18558 | 28 ft | 4 kts | 279° |
| 2026-05-05 18:46 | 49.19711 | -123.18623 | 28 ft | 8 kts | 251° |
| 2026-05-05 18:46 | 49.19665 | -123.18669 | 28 ft | 10 kts | 197° |
| 2026-05-05 18:46 | 49.19584 | -123.18693 | 28 ft | 14 kts | 189° |
| 2026-05-05 18:47 | 49.19478 | -123.18722 | 28 ft | 16 kts | 190° |
| 2026-05-05 18:47 | 49.19386 | -123.18777 | 28 ft | 13 kts | 244° |
| 2026-05-05 18:47 | 49.19371 | -123.18896 | 28 ft | 11 kts | 274° |
| 2026-05-05 18:47 | 49.19413 | -123.18986 | 28 ft | 10 kts | 318° |
| 2026-05-05 18:48 | 49.19468 | -123.19061 | 28 ft | 11 kts | 320° |
| 2026-05-05 18:48 | 49.19525 | -123.19125 | 28 ft | 11 kts | 323° |
| 2026-05-05 18:48 | 49.19586 | -123.19197 | 28 ft | 11 kts | 322° |
| 2026-05-05 18:48 | 49.19642 | -123.19265 | 28 ft | 12 kts | 322° |
| 2026-05-05 18:49 | 49.19708 | -123.19343 | 28 ft | 12 kts | 322° |
| 2026-05-05 18:49 | 49.19775 | -123.19424 | 28 ft | 12 kts | 322° |
| 2026-05-05 18:49 | 49.19841 | -123.19504 | 28 ft | 13 kts | 322° |
| 2026-05-05 18:49 | 49.19908 | -123.19584 | 28 ft | 13 kts | 321° |
| 2026-05-05 18:50 | 49.19979 | -123.19671 | 28 ft | 13 kts | 321° |
| 2026-05-05 18:50 | 49.20053 | -123.19760 | 28 ft | 14 kts | 321° |
| 2026-05-05 18:50 | 49.20128 | -123.19851 | 28 ft | 14 kts | 321° |
| 2026-05-05 18:50 | 49.20203 | -123.19942 | 28 ft | 14 kts | 321° |
| 2026-05-05 18:51 | 49.20280 | -123.20037 | 28 ft | 14 kts | 321° |
| 2026-05-05 18:51 | 49.20360 | -123.20122 | 28 ft | 14 kts | 339° |
| 2026-05-05 18:51 | 49.20451 | -123.20118 | 29 ft | 13 kts | 20° |
| 2026-05-05 18:51 | 49.20500 | -123.20023 | 29 ft | 11 kts | 83° |
| 2026-05-05 18:52 | 49.20496 | -123.19910 | 28 ft | 11 kts | 98° |
| 2026-05-05 18:52 | 49.20452 | -123.19522 | 26 ft | 76 kts | 99° |
| 2026-05-05 18:52 | 49.20325 | -123.18379 | 30 ft | 144 kts | 99° |
| 2026-05-05 18:52 | 49.20124 | -123.16587 | 248 ft | 185 kts | 100° |
| 2026-05-05 18:53 | 49.19941 | -123.14891 | 1759 ft | 141 kts | 101° |
| 2026-05-05 18:53 | 49.19772 | -123.13350 | 2389 ft | 160 kts | 101° |
| 2026-05-05 18:53 | 49.19307 | -123.11993 | 2975 ft | 160 kts | 137° |
| 2026-05-05 18:53 | 49.18515 | -123.10844 | 3744 ft | 160 kts | 124° |
| 2026-05-05 18:54 | 49.17884 | -123.09030 | 3621 ft | 222 kts | 116° |
| 2026-05-05 18:54 | 49.17130 | -123.06727 | 3488 ft | 259 kts | 116° |
| 2026-05-05 18:54 | 49.16287 | -123.04195 | 3605 ft | 270 kts | 118° |
| 2026-05-05 18:54 | 49.15381 | -123.01663 | 3776 ft | 273 kts | 120° |
| 2026-05-05 18:55 | 49.14404 | -122.99140 | 3938 ft | 276 kts | 122° |
| 2026-05-05 18:55 | 49.13416 | -122.96802 | 4177 ft | 277 kts | 124° |
| 2026-05-05 18:55 | 49.12353 | -122.94335 | 4218 ft | 280 kts | 120° |
| 2026-05-05 18:55 | 49.11388 | -122.91734 | 4232 ft | 277 kts | 118° |
| 2026-05-05 18:56 | 49.10673 | -122.89679 | 4216 ft | 276 kts | 117° |
| 2026-05-05 18:56 | 49.09809 | -122.87110 | 4200 ft | 273 kts | 117° |
| 2026-05-05 18:56 | 49.08969 | -122.84551 | 4158 ft | 272 kts | 116° |
| 2026-05-05 18:56 | 49.08137 | -122.81985 | 4126 ft | 272 kts | 116° |
| 2026-05-05 18:57 | 49.07297 | -122.79374 | 4086 ft | 271 kts | 116° |
| 2026-05-05 18:57 | 49.06501 | -122.76891 | 4034 ft | 270 kts | 116° |
| 2026-05-05 18:57 | 49.05643 | -122.74205 | 4480 ft | 289 kts | 114° |
| 2026-05-05 18:57 | 49.05108 | -122.71304 | 5973 ft | 277 kts | 96° |
| 2026-05-05 18:58 | 49.05210 | -122.68475 | 7692 ft | 263 kts | 79° |
| 2026-05-05 18:58 | 49.05421 | -122.65560 | 8143 ft | 299 kts | 98° |
| 2026-05-05 18:58 | 49.04773 | -122.62464 | 8769 ft | 324 kts | 111° |
| 2026-05-05 18:58 | 49.03824 | -122.59244 | 9411 ft | 350 kts | 114° |
| 2026-05-05 18:59 | 49.02711 | -122.55735 | 10076 ft | 376 kts | 115° |
| 2026-05-05 18:59 | 49.01530 | -122.52063 | 10841 ft | 393 kts | 115° |
| 2026-05-05 18:59 | 49.00306 | -122.48306 | 11719 ft | 408 kts | 115° |
| 2026-05-05 18:59 | 48.99003 | -122.44353 | 12629 ft | 422 kts | 115° |
| 2026-05-05 19:00 | 48.97660 | -122.40324 | 13552 ft | 435 kts | 115° |
| 2026-05-05 19:00 | 48.96266 | -122.36191 | 14393 ft | 447 kts | 115° |
| 2026-05-05 19:00 | 48.94822 | -122.31958 | 15231 ft | 458 kts | 115° |
| 2026-05-05 19:00 | 48.93435 | -122.27921 | 16014 ft | 467 kts | 115° |
| 2026-05-05 19:01 | 48.91922 | -122.23562 | 16879 ft | 469 kts | 115° |
| 2026-05-05 19:01 | 48.90383 | -122.19168 | 17754 ft | 472 kts | 115° |
| 2026-05-05 19:01 | 48.88828 | -122.14776 | 18604 ft | 478 kts | 115° |
| 2026-05-05 19:01 | 48.87217 | -122.10246 | 19412 ft | 485 kts | 115° |
| 2026-05-05 19:02 | 48.85657 | -122.05866 | 20205 ft | 491 kts | 115° |
| 2026-05-05 19:02 | 48.84021 | -122.01287 | 21037 ft | 496 kts | 115° |
| 2026-05-05 19:02 | 48.82357 | -121.96632 | 21668 ft | 507 kts | 115° |
| 2026-05-05 19:02 | 48.80646 | -121.91850 | 22037 ft | 509 kts | 115° |
| 2026-05-05 19:03 | 48.78989 | -121.87235 | 22421 ft | 509 kts | 115° |
| 2026-05-05 19:03 | 48.77274 | -121.82490 | 22815 ft | 515 kts | 115° |
| 2026-05-05 19:03 | 48.75560 | -121.77744 | 23164 ft | 510 kts | 115° |
| 2026-05-05 19:03 | 48.73852 | -121.73033 | 23579 ft | 515 kts | 115° |
| 2026-05-05 19:04 | 48.72076 | -121.68149 | 23950 ft | 523 kts | 115° |
| 2026-05-05 19:04 | 48.70350 | -121.63401 | 24274 ft | 522 kts | 115° |
| 2026-05-05 19:04 | 48.68605 | -121.58597 | 24606 ft | 526 kts | 115° |
| 2026-05-05 19:04 | 48.66896 | -121.53884 | 24959 ft | 527 kts | 115° |
| 2026-05-05 19:05 | 48.65259 | -121.49370 | 25281 ft | 530 kts | 115° |
| 2026-05-05 19:05 | 48.63712 | -121.45105 | 25567 ft | 532 kts | 115° |
| 2026-05-05 19:05 | 48.62128 | -121.40728 | 25908 ft | 539 kts | 115° |
| 2026-05-05 19:05 | 48.60334 | -121.35768 | 26267 ft | 538 kts | 115° |
| 2026-05-05 19:06 | 48.58536 | -121.30799 | 26625 ft | 537 kts | 115° |
| 2026-05-05 19:06 | 48.56759 | -121.25886 | 27013 ft | 538 kts | 115° |
| 2026-05-05 19:06 | 48.54989 | -121.20984 | 27412 ft | 540 kts | 115° |
| 2026-05-05 19:06 | 48.53169 | -121.15947 | 27770 ft | 536 kts | 115° |
| 2026-05-05 19:07 | 48.51396 | -121.11045 | 28139 ft | 534 kts | 115° |
| 2026-05-05 19:07 | 48.50195 | -121.07722 | 28418 ft | 535 kts | 115° |
| 2026-05-05 19:07 | 48.47826 | -121.01160 | 28970 ft | 537 kts | 115° |
| 2026-05-05 19:07 | 48.46205 | -120.96672 | 29276 ft | 534 kts | 115° |
| 2026-05-05 19:08 | 48.44430 | -120.91762 | 29681 ft | 532 kts | 114° |
| 2026-05-05 19:08 | 48.42655 | -120.86865 | 30094 ft | 534 kts | 114° |
| 2026-05-05 19:08 | 48.40861 | -120.81922 | 30442 ft | 533 kts | 114° |
| 2026-05-05 19:08 | 48.39087 | -120.77036 | 30789 ft | 532 kts | 114° |
| 2026-05-05 19:09 | 48.37348 | -120.72263 | 31137 ft | 531 kts | 114° |
| 2026-05-05 19:09 | 48.35561 | -120.67400 | 31481 ft | 530 kts | 115° |
| 2026-05-05 19:09 | 48.33813 | -120.62644 | 31845 ft | 530 kts | 114° |
| 2026-05-05 19:09 | 48.32064 | -120.57881 | 32190 ft | 531 kts | 114° |
| 2026-05-05 19:10 | 48.30274 | -120.53017 | 32565 ft | 531 kts | 115° |
| 2026-05-05 19:10 | 48.28497 | -120.48204 | 32947 ft | 530 kts | 114° |
| 2026-05-05 19:10 | 48.26724 | -120.43401 | 33308 ft | 530 kts | 114° |
| 2026-05-05 19:10 | 48.24931 | -120.38546 | 33700 ft | 530 kts | 114° |
| 2026-05-05 19:11 | 48.23167 | -120.33768 | 34083 ft | 531 kts | 114° |
| 2026-05-05 19:11 | 48.21387 | -120.28945 | 34409 ft | 531 kts | 115° |
| 2026-05-05 19:11 | 48.19601 | -120.24111 | 34747 ft | 530 kts | 115° |
| 2026-05-05 19:11 | 48.17833 | -120.19335 | 35097 ft | 534 kts | 115° |
| 2026-05-05 19:12 | 48.16028 | -120.14491 | 35465 ft | 534 kts | 114° |
| 2026-05-05 19:12 | 48.14267 | -120.09792 | 35808 ft | 532 kts | 114° |
| 2026-05-05 19:12 | 48.12435 | -120.04964 | 36169 ft | 531 kts | 114° |
| 2026-05-05 19:12 | 48.10645 | -120.00248 | 36536 ft | 531 kts | 114° |
| 2026-05-05 19:13 | 48.08825 | -119.95457 | 36909 ft | 532 kts | 114° |
| 2026-05-05 19:13 | 48.07014 | -119.90692 | 37282 ft | 531 kts | 114° |
| 2026-05-05 19:13 | 48.05184 | -119.85895 | 37640 ft | 526 kts | 114° |
| 2026-05-05 19:13 | 48.03994 | -119.82803 | 37912 ft | 520 kts | 114° |
| 2026-05-05 19:14 | 48.01661 | -119.76768 | 38389 ft | 515 kts | 114° |
| 2026-05-05 19:14 | 48.00466 | -119.73695 | 38638 ft | 514 kts | 114° |
| 2026-05-05 19:14 | 47.98877 | -119.68971 | 38965 ft | 503 kts | 98° |
| 2026-05-05 19:14 | 47.98350 | -119.64019 | 39513 ft | 478 kts | 78° |
| 2026-05-05 19:15 | 47.98760 | -119.59243 | 39961 ft | 469 kts | 73° |
| 2026-05-05 19:15 | 47.99274 | -119.54354 | 39942 ft | 478 kts | 75° |
| 2026-05-05 19:15 | 48.00098 | -119.44532 | 39907 ft | 475 kts | 76° |
| 2026-05-05 19:16 | 48.00649 | -119.35080 | 39911 ft | 475 kts | 81° |
| 2026-05-05 19:16 | 48.00684 | -119.25258 | 39911 ft | 481 kts | 84° |
| 2026-05-05 19:17 | 48.00539 | -119.15045 | 39920 ft | 502 kts | 84° |
| 2026-05-05 19:17 | 48.00371 | -119.04389 | 39930 ft | 518 kts | 84° |
| 2026-05-05 19:18 | 48.00218 | -118.94552 | 39926 ft | 516 kts | 84° |
| 2026-05-05 19:18 | 48.00045 | -118.83833 | 39905 ft | 514 kts | 84° |
| 2026-05-05 19:19 | 47.99859 | -118.73551 | 39900 ft | 505 kts | 84° |
| 2026-05-05 19:19 | 47.99684 | -118.64340 | 39911 ft | 501 kts | 84° |
| 2026-05-05 19:20 | 47.99486 | -118.54012 | 39911 ft | 503 kts | 84° |
| 2026-05-05 19:20 | 47.99283 | -118.43594 | 39920 ft | 502 kts | 84° |
| 2026-05-05 19:21 | 47.99080 | -118.33228 | 39929 ft | 502 kts | 84° |
| 2026-05-05 19:21 | 47.98874 | -118.22816 | 39928 ft | 503 kts | 84° |
| 2026-05-05 19:22 | 47.98671 | -118.12418 | 39928 ft | 503 kts | 84° |
| 2026-05-05 19:22 | 47.98469 | -118.01999 | 39935 ft | 503 kts | 84° |
| 2026-05-05 19:23 | 47.98266 | -117.91682 | 39949 ft | 503 kts | 84° |
| 2026-05-05 19:23 | 47.98061 | -117.81250 | 39961 ft | 502 kts | 84° |
| 2026-05-05 19:24 | 47.98000 | -117.71563 | 39967 ft | 499 kts | 81° |
| 2026-05-05 19:24 | 47.98280 | -117.61111 | 39977 ft | 498 kts | 79° |
| 2026-05-05 19:25 | 47.98636 | -117.51252 | 39979 ft | 498 kts | 79° |
| 2026-05-05 19:25 | 47.99034 | -117.40880 | 39970 ft | 497 kts | 79° |
| 2026-05-05 19:26 | 47.99424 | -117.30845 | 39977 ft | 498 kts | 79° |
| 2026-05-05 19:26 | 47.99875 | -117.21412 | 39975 ft | 495 kts | 76° |
| 2026-05-05 19:27 | 48.00659 | -117.11939 | 39978 ft | 493 kts | 75° |
| 2026-05-05 19:27 | 48.01623 | -117.01825 | 39979 ft | 490 kts | 74° |
| 2026-05-05 19:28 | 48.02611 | -116.91698 | 39984 ft | 491 kts | 74° |
| 2026-05-05 19:28 | 48.03581 | -116.81878 | 39994 ft | 491 kts | 74° |
| 2026-05-05 19:29 | 48.04549 | -116.72081 | 39987 ft | 492 kts | 74° |
| 2026-05-05 19:29 | 48.05548 | -116.61931 | 39990 ft | 492 kts | 74° |
| 2026-05-05 19:30 | 48.06541 | -116.51810 | 39986 ft | 491 kts | 73° |
| 2026-05-05 19:30 | 48.07523 | -116.41766 | 39978 ft | 491 kts | 73° |
| 2026-05-05 19:31 | 48.08495 | -116.31854 | 39965 ft | 492 kts | 73° |
| 2026-05-05 19:31 | 48.09491 | -116.21622 | 39955 ft | 491 kts | 73° |
| 2026-05-05 19:32 | 48.10468 | -116.11479 | 39938 ft | 491 kts | 73° |
| 2026-05-05 19:32 | 48.10753 | -116.01865 | 39975 ft | 509 kts | 91° |
| 2026-05-05 19:33 | 48.09973 | -115.96779 | 39986 ft | 523 kts | 102° |
| 2026-05-05 19:33 | 48.08559 | -115.91843 | 39976 ft | 534 kts | 111° |
| 2026-05-05 19:33 | 48.04890 | -115.82187 | 39940 ft | 537 kts | 112° |
| 2026-05-05 19:34 | 48.01721 | -115.72373 | 39942 ft | 527 kts | 102° |
| 2026-05-05 19:35 | 47.98464 | -115.57887 | 39955 ft | 528 kts | 104° |
| 2026-05-05 19:35 | 47.95905 | -115.48883 | 39938 ft | 527 kts | 104° |
| 2026-05-05 19:36 | 47.93465 | -115.38912 | 39947 ft | 527 kts | 103° |
| 2026-05-05 19:36 | 47.90815 | -115.29042 | 39950 ft | 531 kts | 104° |
| 2026-05-05 19:37 | 47.88272 | -115.19206 | 39955 ft | 530 kts | 103° |
| 2026-05-05 19:37 | 47.85707 | -115.09433 | 39976 ft | 531 kts | 104° |
| 2026-05-05 19:38 | 47.83287 | -115.00348 | 39975 ft | 530 kts | 103° |
| 2026-05-05 19:38 | 47.80718 | -114.90519 | 39971 ft | 531 kts | 104° |
| 2026-05-05 19:39 | 47.78058 | -114.80634 | 39981 ft | 531 kts | 103° |
| 2026-05-05 19:39 | 47.75435 | -114.70720 | 40006 ft | 530 kts | 104° |
| 2026-05-05 19:40 | 47.72781 | -114.60888 | 39993 ft | 532 kts | 104° |
| 2026-05-05 19:40 | 47.70171 | -114.51158 | 39992 ft | 531 kts | 104° |
| 2026-05-05 19:41 | 47.67422 | -114.41014 | 39996 ft | 532 kts | 104° |
| 2026-05-05 19:41 | 47.64696 | -114.30964 | 40021 ft | 532 kts | 104° |
| 2026-05-05 19:42 | 47.61888 | -114.20677 | 40021 ft | 531 kts | 104° |
| 2026-05-05 19:42 | 47.59122 | -114.10580 | 40017 ft | 531 kts | 104° |
| 2026-05-05 19:43 | 47.56338 | -114.00461 | 40014 ft | 530 kts | 104° |
| 2026-05-05 19:43 | 47.53653 | -113.90745 | 40001 ft | 529 kts | 104° |
| 2026-05-05 19:44 | 47.50872 | -113.80713 | 40038 ft | 529 kts | 104° |
| 2026-05-05 19:44 | 47.48154 | -113.70965 | 40012 ft | 531 kts | 104° |
| 2026-05-05 19:45 | 47.45465 | -113.61348 | 40010 ft | 531 kts | 104° |
| 2026-05-05 19:45 | 47.42680 | -113.51434 | 40015 ft | 530 kts | 105° |
| 2026-05-05 19:46 | 47.39963 | -113.41798 | 40016 ft | 530 kts | 105° |
| 2026-05-05 19:46 | 47.37264 | -113.32262 | 40013 ft | 530 kts | 105° |
| 2026-05-05 19:47 | 47.34805 | -113.23614 | 40030 ft | 530 kts | 105° |
| 2026-05-05 19:47 | 47.32225 | -113.14562 | 40039 ft | 531 kts | 105° |
| 2026-05-05 19:48 | 47.29554 | -113.05241 | 40054 ft | 531 kts | 105° |
| 2026-05-05 19:48 | 47.26992 | -112.96320 | 40074 ft | 531 kts | 106° |
| 2026-05-05 19:49 | 47.24560 | -112.87891 | 40084 ft | 531 kts | 106° |
| 2026-05-05 19:49 | 47.21741 | -112.78151 | 40087 ft | 532 kts | 106° |
| 2026-05-05 19:50 | 47.18978 | -112.68644 | 40105 ft | 532 kts | 107° |
| 2026-05-05 19:50 | 47.16346 | -112.59621 | 40097 ft | 534 kts | 107° |
| 2026-05-05 19:51 | 47.13456 | -112.49755 | 40107 ft | 534 kts | 107° |
| 2026-05-05 19:51 | 47.10584 | -112.39990 | 40114 ft | 534 kts | 107° |
| 2026-05-05 19:52 | 47.07744 | -112.30365 | 40122 ft | 535 kts | 107° |
| 2026-05-05 19:52 | 47.04792 | -112.20406 | 40125 ft | 535 kts | 107° |
| 2026-05-05 19:53 | 47.02341 | -112.12168 | 40138 ft | 535 kts | 108° |
| 2026-05-05 19:53 | 46.99106 | -112.01333 | 40137 ft | 535 kts | 108° |
| 2026-05-05 19:54 | 46.96256 | -111.91829 | 40146 ft | 536 kts | 108° |
| 2026-05-05 19:54 | 46.93245 | -111.81825 | 40136 ft | 537 kts | 108° |
| 2026-05-05 19:55 | 46.90247 | -111.71903 | 40128 ft | 537 kts | 108° |
| 2026-05-05 19:55 | 46.87225 | -111.61947 | 40137 ft | 537 kts | 108° |
| 2026-05-05 19:56 | 46.84185 | -111.51968 | 40140 ft | 536 kts | 108° |
| 2026-05-05 19:56 | 46.81261 | -111.42404 | 40107 ft | 537 kts | 109° |
| 2026-05-05 19:57 | 46.78209 | -111.32466 | 40115 ft | 537 kts | 109° |
| 2026-05-05 19:57 | 46.75193 | -111.22681 | 40127 ft | 537 kts | 109° |
| 2026-05-05 19:58 | 46.72114 | -111.12728 | 40126 ft | 538 kts | 109° |
| 2026-05-05 19:58 | 46.69027 | -111.02794 | 40120 ft | 538 kts | 109° |
| 2026-05-05 19:59 | 46.65954 | -110.92938 | 40119 ft | 538 kts | 109° |
| 2026-05-05 19:59 | 46.62854 | -110.83037 | 40104 ft | 538 kts | 109° |
| 2026-05-05 20:00 | 46.60245 | -110.74734 | 40098 ft | 538 kts | 110° |
| 2026-05-05 20:00 | 46.57142 | -110.64893 | 40088 ft | 539 kts | 110° |
| 2026-05-05 20:01 | 46.54204 | -110.55610 | 40081 ft | 540 kts | 110° |
| 2026-05-05 20:01 | 46.51074 | -110.45760 | 40088 ft | 540 kts | 110° |
| 2026-05-05 20:02 | 46.47940 | -110.35933 | 40082 ft | 540 kts | 110° |
| 2026-05-05 20:02 | 46.44831 | -110.26222 | 40076 ft | 540 kts | 110° |
| 2026-05-05 20:03 | 46.41813 | -110.16830 | 40078 ft | 539 kts | 111° |
| 2026-05-05 20:03 | 46.38624 | -110.06942 | 40071 ft | 539 kts | 111° |
| 2026-05-05 20:04 | 46.35470 | -109.97202 | 40064 ft | 539 kts | 111° |
| 2026-05-05 20:04 | 46.32280 | -109.87385 | 40050 ft | 540 kts | 111° |
| 2026-05-05 20:05 | 46.29147 | -109.77990 | 40049 ft | 540 kts | 112° |
| 2026-05-05 20:05 | 46.25883 | -109.68202 | 40033 ft | 539 kts | 112° |
| 2026-05-05 20:06 | 46.22630 | -109.58480 | 40029 ft | 538 kts | 112° |
| 2026-05-05 20:06 | 46.19374 | -109.48805 | 40025 ft | 539 kts | 112° |
| 2026-05-05 20:07 | 46.16088 | -109.39050 | 40022 ft | 539 kts | 112° |
| 2026-05-05 20:07 | 46.12793 | -109.29333 | 40029 ft | 539 kts | 112° |
| 2026-05-05 20:08 | 46.09564 | -109.19818 | 40032 ft | 539 kts | 113° |
| 2026-05-05 20:08 | 46.06250 | -109.10114 | 40027 ft | 539 kts | 113° |
| 2026-05-05 20:09 | 46.03126 | -109.00977 | 40024 ft | 540 kts | 113° |
| 2026-05-05 20:09 | 46.00006 | -108.91901 | 40038 ft | 539 kts | 114° |
| 2026-05-05 20:10 | 45.96816 | -108.82642 | 40047 ft | 539 kts | 114° |
| 2026-05-05 20:10 | 45.93814 | -108.73964 | 40025 ft | 540 kts | 114° |
| 2026-05-05 20:11 | 45.90465 | -108.64313 | 40046 ft | 539 kts | 114° |
| 2026-05-05 20:11 | 45.87115 | -108.54694 | 40049 ft | 540 kts | 114° |
| 2026-05-05 20:12 | 45.83732 | -108.45016 | 40048 ft | 541 kts | 114° |
| 2026-05-05 20:12 | 45.80792 | -108.36634 | 40053 ft | 541 kts | 114° |
| 2026-05-05 20:13 | 45.77426 | -108.27070 | 40056 ft | 542 kts | 115° |
| 2026-05-05 20:13 | 45.74004 | -108.17381 | 40057 ft | 542 kts | 115° |
| 2026-05-05 20:14 | 45.70704 | -108.08071 | 40066 ft | 541 kts | 115° |
| 2026-05-05 20:14 | 45.67266 | -107.98405 | 40059 ft | 542 kts | 115° |
| 2026-05-05 20:15 | 45.63843 | -107.88817 | 40067 ft | 542 kts | 115° |
| 2026-05-05 20:15 | 45.60412 | -107.79240 | 40067 ft | 543 kts | 115° |
| 2026-05-05 20:16 | 45.56998 | -107.69746 | 40063 ft | 544 kts | 116° |
| 2026-05-05 20:16 | 45.53488 | -107.60018 | 40066 ft | 544 kts | 116° |
| 2026-05-05 20:17 | 45.50034 | -107.50480 | 40058 ft | 544 kts | 116° |
| 2026-05-05 20:17 | 45.46567 | -107.40936 | 40060 ft | 543 kts | 116° |
| 2026-05-05 20:18 | 45.43160 | -107.31595 | 40054 ft | 544 kts | 116° |
| 2026-05-05 20:18 | 45.39722 | -107.22199 | 40052 ft | 544 kts | 116° |
| 2026-05-05 20:19 | 45.36228 | -107.12683 | 40046 ft | 544 kts | 116° |
| 2026-05-05 20:19 | 45.32712 | -107.03141 | 40042 ft | 544 kts | 117° |
| 2026-05-05 20:20 | 45.29185 | -106.93603 | 40041 ft | 544 kts | 117° |
| 2026-05-05 20:20 | 45.25754 | -106.84354 | 40039 ft | 545 kts | 117° |
| 2026-05-05 20:21 | 45.22225 | -106.74876 | 40035 ft | 545 kts | 117° |
| 2026-05-05 20:21 | 45.18687 | -106.65407 | 40026 ft | 547 kts | 117° |
| 2026-05-05 20:22 | 45.15090 | -106.55812 | 40029 ft | 547 kts | 117° |
| 2026-05-05 20:22 | 45.11525 | -106.46335 | 40024 ft | 547 kts | 118° |
| 2026-05-05 20:23 | 45.07929 | -106.36809 | 40019 ft | 547 kts | 118° |
| 2026-05-05 20:23 | 45.04351 | -106.27365 | 40018 ft | 547 kts | 118° |
| 2026-05-05 20:24 | 45.00801 | -106.18026 | 40017 ft | 547 kts | 118° |
| 2026-05-05 20:24 | 44.97196 | -106.08572 | 40012 ft | 547 kts | 118° |
| 2026-05-05 20:25 | 44.93587 | -105.99142 | 40014 ft | 547 kts | 118° |
| 2026-05-05 20:25 | 44.89961 | -105.89699 | 40011 ft | 547 kts | 119° |
| 2026-05-05 20:26 | 44.86331 | -105.80277 | 40004 ft | 547 kts | 119° |
| 2026-05-05 20:26 | 44.82685 | -105.70849 | 40001 ft | 547 kts | 119° |
| 2026-05-05 20:27 | 44.79037 | -105.61445 | 39998 ft | 547 kts | 119° |
| 2026-05-05 20:27 | 44.75391 | -105.52079 | 39998 ft | 548 kts | 120° |
| 2026-05-05 20:28 | 44.71702 | -105.42632 | 39993 ft | 549 kts | 120° |
| 2026-05-05 20:28 | 44.68013 | -105.33218 | 39995 ft | 550 kts | 120° |
| 2026-05-05 20:29 | 44.64316 | -105.23817 | 39996 ft | 551 kts | 120° |
| 2026-05-05 20:29 | 44.60745 | -105.14765 | 39996 ft | 551 kts | 120° |
| 2026-05-05 20:30 | 44.57080 | -105.05506 | 39993 ft | 551 kts | 120° |
| 2026-05-05 20:30 | 44.53345 | -104.96100 | 39993 ft | 551 kts | 120° |
| 2026-05-05 20:31 | 44.49631 | -104.86778 | 39997 ft | 551 kts | 121° |
| 2026-05-05 20:31 | 44.45862 | -104.77350 | 39989 ft | 551 kts | 121° |
| 2026-05-05 20:32 | 44.42121 | -104.68024 | 39981 ft | 552 kts | 121° |
| 2026-05-05 20:32 | 44.38365 | -104.58689 | 39979 ft | 552 kts | 121° |
| 2026-05-05 20:33 | 44.34579 | -104.49315 | 39977 ft | 553 kts | 121° |
| 2026-05-05 20:33 | 44.30793 | -104.39968 | 39974 ft | 554 kts | 121° |
| 2026-05-05 20:34 | 44.27002 | -104.30641 | 39982 ft | 555 kts | 121° |
| 2026-05-05 20:34 | 44.23145 | -104.21432 | 39987 ft | 556 kts | 123° |
| 2026-05-05 20:35 | 44.19223 | -104.12085 | 39984 ft | 557 kts | 122° |
| 2026-05-05 20:35 | 44.15656 | -104.03581 | 39978 ft | 558 kts | 123° |
| 2026-05-05 20:36 | 44.11735 | -103.94324 | 39978 ft | 559 kts | 122° |
| 2026-05-05 20:36 | 44.07805 | -103.85007 | 39973 ft | 561 kts | 123° |
| 2026-05-05 20:37 | 44.03799 | -103.75604 | 39957 ft | 561 kts | 123° |
| 2026-05-05 20:37 | 43.99842 | -103.66295 | 39938 ft | 561 kts | 123° |
| 2026-05-05 20:38 | 43.96147 | -103.57666 | 39924 ft | 561 kts | 123° |
| 2026-05-05 20:38 | 43.92169 | -103.48378 | 39921 ft | 560 kts | 123° |
| 2026-05-05 20:39 | 43.88330 | -103.39459 | 39923 ft | 558 kts | 123° |
| 2026-05-05 20:39 | 43.84448 | -103.30457 | 39927 ft | 556 kts | 123° |
| 2026-05-05 20:40 | 43.80533 | -103.21416 | 39947 ft | 555 kts | 123° |
| 2026-05-05 20:40 | 43.76789 | -103.12790 | 39954 ft | 554 kts | 123° |
| 2026-05-05 20:41 | 43.72803 | -103.03638 | 39969 ft | 554 kts | 123° |
| 2026-05-05 20:41 | 43.68979 | -102.94883 | 39972 ft | 553 kts | 124° |
| 2026-05-05 20:42 | 43.65278 | -102.86435 | 39974 ft | 553 kts | 124° |
| 2026-05-05 20:42 | 43.61338 | -102.77472 | 39976 ft | 554 kts | 124° |
| 2026-05-05 20:43 | 43.57347 | -102.68417 | 39977 ft | 556 kts | 124° |
| 2026-05-05 20:43 | 43.53405 | -102.59503 | 39979 ft | 556 kts | 124° |
| 2026-05-05 20:44 | 43.49493 | -102.50681 | 39977 ft | 556 kts | 125° |
| 2026-05-05 20:44 | 43.45659 | -102.42064 | 39995 ft | 556 kts | 125° |
| 2026-05-05 20:45 | 43.39736 | -102.28800 | 39993 ft | 558 kts | 125° |
| 2026-05-05 20:45 | 43.35779 | -102.19971 | 39987 ft | 558 kts | 126° |
| 2026-05-05 20:46 | 43.32386 | -102.12422 | 39989 ft | 558 kts | 126° |
| 2026-05-05 20:46 | 43.28304 | -102.03367 | 39983 ft | 558 kts | 126° |
| 2026-05-05 20:47 | 43.24240 | -101.94379 | 39986 ft | 559 kts | 126° |
| 2026-05-05 20:47 | 43.20140 | -101.85339 | 39987 ft | 559 kts | 126° |
| 2026-05-05 20:48 | 43.16018 | -101.76278 | 39988 ft | 560 kts | 126° |
| 2026-05-05 20:48 | 43.11886 | -101.67221 | 39990 ft | 560 kts | 126° |
| 2026-05-05 20:49 | 43.07780 | -101.58252 | 39987 ft | 560 kts | 127° |
| 2026-05-05 20:49 | 43.03642 | -101.49241 | 39991 ft | 560 kts | 127° |
| 2026-05-05 20:50 | 42.99477 | -101.40198 | 39987 ft | 561 kts | 127° |
| 2026-05-05 20:50 | 42.95317 | -101.31193 | 39980 ft | 562 kts | 127° |
| 2026-05-05 20:51 | 42.91148 | -101.22196 | 39982 ft | 563 kts | 127° |
| 2026-05-05 20:51 | 42.86929 | -101.13117 | 39982 ft | 563 kts | 127° |
| 2026-05-05 20:52 | 42.82756 | -101.04166 | 39980 ft | 563 kts | 127° |
| 2026-05-05 20:52 | 42.78543 | -100.95157 | 39978 ft | 564 kts | 127° |
| 2026-05-05 20:53 | 42.74325 | -100.86164 | 39977 ft | 564 kts | 128° |
| 2026-05-05 20:53 | 42.70137 | -100.77261 | 39972 ft | 564 kts | 128° |
| 2026-05-05 20:54 | 42.65886 | -100.68255 | 39985 ft | 565 kts | 128° |
| 2026-05-05 20:54 | 42.61674 | -100.59354 | 39969 ft | 566 kts | 128° |
| 2026-05-05 20:55 | 42.57580 | -100.50730 | 39966 ft | 566 kts | 128° |
| 2026-05-05 20:55 | 42.53322 | -100.41787 | 39967 ft | 566 kts | 128° |
| 2026-05-05 20:56 | 42.49124 | -100.32995 | 39969 ft | 566 kts | 128° |
| 2026-05-05 20:56 | 42.44834 | -100.24037 | 39962 ft | 566 kts | 129° |
| 2026-05-05 20:57 | 42.40617 | -100.15259 | 39959 ft | 567 kts | 129° |
| 2026-05-05 20:57 | 42.36299 | -100.06295 | 39974 ft | 567 kts | 129° |
| 2026-05-05 20:58 | 42.31995 | -99.97389 | 39963 ft | 568 kts | 129° |
| 2026-05-05 20:58 | 42.27691 | -99.88509 | 39959 ft | 569 kts | 129° |
| 2026-05-05 20:59 | 42.23384 | -99.79648 | 39953 ft | 570 kts | 129° |
| 2026-05-05 20:59 | 42.19021 | -99.70700 | 39953 ft | 571 kts | 130° |
| 2026-05-05 21:00 | 42.14643 | -99.61746 | 39953 ft | 572 kts | 130° |
| 2026-05-05 21:00 | 42.10277 | -99.52842 | 39948 ft | 573 kts | 130° |
| 2026-05-05 21:01 | 42.05872 | -99.43887 | 39946 ft | 573 kts | 130° |
| 2026-05-05 21:01 | 42.01540 | -99.35107 | 39944 ft | 573 kts | 130° |
| 2026-05-05 21:02 | 41.97164 | -99.26263 | 39948 ft | 572 kts | 130° |
| 2026-05-05 21:02 | 41.92411 | -99.17847 | 39966 ft | 567 kts | 135° |
| 2026-05-05 21:03 | 41.87585 | -99.09494 | 39952 ft | 568 kts | 135° |
| 2026-05-05 21:03 | 41.82796 | -99.01309 | 39943 ft | 568 kts | 136° |
| 2026-05-05 21:04 | 41.77967 | -98.93026 | 39937 ft | 567 kts | 136° |
| 2026-05-05 21:04 | 41.73208 | -98.84912 | 39939 ft | 566 kts | 136° |
| 2026-05-05 21:05 | 41.68570 | -98.77017 | 39940 ft | 566 kts | 136° |
| 2026-05-05 21:05 | 41.63790 | -98.68896 | 39943 ft | 565 kts | 136° |
| 2026-05-05 21:06 | 41.58921 | -98.60661 | 39948 ft | 565 kts | 136° |
| 2026-05-05 21:06 | 41.54058 | -98.52441 | 39950 ft | 564 kts | 137° |
| 2026-05-05 21:07 | 41.49338 | -98.44499 | 39949 ft | 564 kts | 137° |
| 2026-05-05 21:07 | 41.44460 | -98.36303 | 39951 ft | 565 kts | 137° |
| 2026-05-05 21:08 | 41.39655 | -98.28255 | 39954 ft | 565 kts | 137° |
| 2026-05-05 21:08 | 41.34861 | -98.20245 | 39958 ft | 564 kts | 137° |
| 2026-05-05 21:09 | 41.30008 | -98.12158 | 39965 ft | 564 kts | 137° |
| 2026-05-05 21:09 | 41.25107 | -98.04015 | 39959 ft | 565 kts | 137° |
| 2026-05-05 21:10 | 41.20290 | -97.96030 | 39955 ft | 565 kts | 137° |
| 2026-05-05 21:10 | 41.15358 | -97.87878 | 39951 ft | 565 kts | 137° |
| 2026-05-05 21:11 | 41.10448 | -97.79783 | 39951 ft | 565 kts | 138° |
| 2026-05-05 21:11 | 41.05504 | -97.71653 | 39941 ft | 565 kts | 138° |
| 2026-05-05 21:12 | 41.00587 | -97.63590 | 39943 ft | 566 kts | 138° |
| 2026-05-05 21:12 | 40.95645 | -97.55505 | 39935 ft | 566 kts | 138° |
| 2026-05-05 21:13 | 40.90668 | -97.47388 | 39936 ft | 567 kts | 138° |
| 2026-05-05 21:13 | 40.85728 | -97.39349 | 39938 ft | 568 kts | 138° |
| 2026-05-05 21:14 | 40.80753 | -97.31275 | 39942 ft | 568 kts | 138° |
| 2026-05-05 21:14 | 40.75746 | -97.23173 | 39933 ft | 568 kts | 139° |
| 2026-05-05 21:15 | 40.70753 | -97.15112 | 39939 ft | 568 kts | 139° |
| 2026-05-05 21:15 | 40.65711 | -97.06996 | 39929 ft | 568 kts | 139° |
| 2026-05-05 21:16 | 40.60750 | -96.99029 | 39928 ft | 568 kts | 139° |
| 2026-05-05 21:16 | 40.55698 | -96.90938 | 39938 ft | 568 kts | 139° |
| 2026-05-05 21:17 | 40.50686 | -96.82932 | 39931 ft | 568 kts | 139° |
| 2026-05-05 21:17 | 40.45876 | -96.75268 | 39922 ft | 568 kts | 139° |
| 2026-05-05 21:18 | 40.40847 | -96.67274 | 39926 ft | 568 kts | 139° |
| 2026-05-05 21:18 | 40.35812 | -96.59294 | 39924 ft | 568 kts | 139° |
| 2026-05-05 21:19 | 40.30863 | -96.51468 | 39926 ft | 568 kts | 139° |
| 2026-05-05 21:19 | 40.25754 | -96.43411 | 39923 ft | 569 kts | 139° |
| 2026-05-05 21:20 | 40.20721 | -96.35493 | 39921 ft | 568 kts | 139° |
| 2026-05-05 21:20 | 40.15683 | -96.27589 | 39912 ft | 568 kts | 139° |
| 2026-05-05 21:21 | 40.10612 | -96.19653 | 39905 ft | 568 kts | 140° |
| 2026-05-05 21:21 | 40.05541 | -96.11735 | 39907 ft | 568 kts | 140° |
| 2026-05-05 21:22 | 40.00455 | -96.03819 | 39904 ft | 567 kts | 140° |
| 2026-05-05 21:22 | 39.95388 | -95.95947 | 39908 ft | 567 kts | 140° |
| 2026-05-05 21:23 | 39.90338 | -95.88127 | 39901 ft | 568 kts | 140° |
| 2026-05-05 21:23 | 39.85230 | -95.80232 | 39899 ft | 569 kts | 140° |
| 2026-05-05 21:24 | 39.80132 | -95.72376 | 39910 ft | 570 kts | 140° |
| 2026-05-05 21:24 | 39.75045 | -95.64553 | 39902 ft | 571 kts | 140° |
| 2026-05-05 21:25 | 39.69896 | -95.56657 | 39893 ft | 571 kts | 140° |
| 2026-05-05 21:25 | 39.64831 | -95.48909 | 39893 ft | 571 kts | 140° |
| 2026-05-05 21:26 | 39.59783 | -95.41205 | 39893 ft | 572 kts | 140° |
| 2026-05-05 21:26 | 39.54623 | -95.33350 | 39889 ft | 572 kts | 140° |
| 2026-05-05 21:27 | 39.49468 | -95.25524 | 39892 ft | 573 kts | 140° |
| 2026-05-05 21:27 | 39.44253 | -95.17625 | 39899 ft | 574 kts | 140° |
| 2026-05-05 21:28 | 39.39093 | -95.09831 | 39898 ft | 575 kts | 140° |
| 2026-05-05 21:28 | 39.33878 | -95.01969 | 39897 ft | 576 kts | 140° |
| 2026-05-05 21:29 | 39.28653 | -94.94115 | 39893 ft | 577 kts | 140° |
| 2026-05-05 21:29 | 39.26243 | -94.89957 | 39937 ft | 589 kts | 129° |
| 2026-05-05 21:29 | 39.24284 | -94.85920 | 39885 ft | 591 kts | 130° |
| 2026-05-05 21:30 | 39.20109 | -94.77459 | 39910 ft | 591 kts | 130° |
| 2026-05-05 21:30 | 39.15995 | -94.69086 | 39910 ft | 591 kts | 130° |
| 2026-05-05 21:31 | 39.11742 | -94.60478 | 39909 ft | 591 kts | 131° |
| 2026-05-05 21:31 | 39.07326 | -94.51564 | 39910 ft | 592 kts | 130° |
| 2026-05-05 21:32 | 39.02935 | -94.42712 | 39912 ft | 593 kts | 131° |
| 2026-05-05 21:32 | 38.99224 | -94.35269 | 39910 ft | 593 kts | 131° |
| 2026-05-05 21:33 | 38.94757 | -94.26306 | 39907 ft | 594 kts | 131° |
| 2026-05-05 21:33 | 38.90304 | -94.17416 | 39903 ft | 594 kts | 131° |
| 2026-05-05 21:34 | 38.85853 | -94.08540 | 39899 ft | 594 kts | 131° |
| 2026-05-05 21:34 | 38.81365 | -93.99625 | 39897 ft | 594 kts | 131° |
| 2026-05-05 21:35 | 38.76879 | -93.90734 | 39901 ft | 594 kts | 131° |
| 2026-05-05 21:35 | 38.72392 | -93.81867 | 39898 ft | 594 kts | 131° |
| 2026-05-05 21:36 | 38.67878 | -93.72971 | 39900 ft | 594 kts | 131° |
| 2026-05-05 21:36 | 38.63383 | -93.64136 | 39902 ft | 594 kts | 131° |
| 2026-05-05 21:37 | 38.58847 | -93.55245 | 39903 ft | 593 kts | 131° |
| 2026-05-05 21:37 | 38.54366 | -93.46487 | 39901 ft | 593 kts | 131° |
| 2026-05-05 21:38 | 38.49828 | -93.37639 | 39893 ft | 592 kts | 132° |
| 2026-05-05 21:38 | 38.45343 | -93.28922 | 39899 ft | 591 kts | 132° |
| 2026-05-05 21:39 | 38.40819 | -93.20150 | 39902 ft | 590 kts | 132° |
| 2026-05-05 21:39 | 38.36286 | -93.11384 | 39886 ft | 590 kts | 132° |
| 2026-05-05 21:40 | 38.31794 | -93.02723 | 39880 ft | 590 kts | 132° |
| 2026-05-05 21:40 | 38.27287 | -92.94053 | 39872 ft | 591 kts | 132° |
| 2026-05-05 21:41 | 38.22738 | -92.85328 | 39874 ft | 591 kts | 132° |
| 2026-05-05 21:41 | 38.18193 | -92.76633 | 39872 ft | 592 kts | 132° |
| 2026-05-05 21:42 | 38.13637 | -92.67940 | 39864 ft | 592 kts | 131° |
| 2026-05-05 21:42 | 38.09057 | -92.59223 | 39874 ft | 593 kts | 131° |
| 2026-05-05 21:43 | 38.04464 | -92.50507 | 39863 ft | 595 kts | 131° |
| 2026-05-05 21:43 | 37.99844 | -92.41759 | 39856 ft | 595 kts | 131° |
| 2026-05-05 21:44 | 37.95253 | -92.33094 | 39829 ft | 596 kts | 131° |
| 2026-05-05 21:44 | 37.90641 | -92.24409 | 39840 ft | 597 kts | 131° |
| 2026-05-05 21:45 | 37.86026 | -92.15741 | 39839 ft | 597 kts | 131° |
| 2026-05-05 21:45 | 37.81362 | -92.07006 | 39842 ft | 597 kts | 131° |
| 2026-05-05 21:46 | 37.76678 | -91.98257 | 39831 ft | 598 kts | 131° |
| 2026-05-05 21:46 | 37.72033 | -91.89601 | 39819 ft | 597 kts | 131° |
| 2026-05-05 21:47 | 37.67383 | -91.80962 | 39816 ft | 598 kts | 131° |
| 2026-05-05 21:47 | 37.62688 | -91.72259 | 39806 ft | 599 kts | 131° |
| 2026-05-05 21:48 | 37.58006 | -91.63605 | 39806 ft | 600 kts | 131° |
| 2026-05-05 21:48 | 37.53283 | -91.54895 | 39801 ft | 599 kts | 131° |
| 2026-05-05 21:49 | 37.48614 | -91.46311 | 39799 ft | 599 kts | 131° |
| 2026-05-05 21:49 | 37.43876 | -91.37618 | 39796 ft | 599 kts | 131° |
| 2026-05-05 21:50 | 37.39193 | -91.29052 | 39786 ft | 599 kts | 131° |
| 2026-05-05 21:50 | 37.34470 | -91.20434 | 39778 ft | 600 kts | 131° |
| 2026-05-05 21:51 | 37.29762 | -91.11865 | 39773 ft | 599 kts | 131° |
| 2026-05-05 21:51 | 37.25017 | -91.03251 | 39771 ft | 600 kts | 131° |
| 2026-05-05 21:52 | 37.17890 | -90.90354 | 39769 ft | 600 kts | 131° |
| 2026-05-05 21:53 | 37.13159 | -90.81820 | 39767 ft | 601 kts | 131° |
| 2026-05-05 21:53 | 37.08377 | -90.73217 | 39767 ft | 601 kts | 131° |
| 2026-05-05 21:54 | 37.03601 | -90.64646 | 39769 ft | 601 kts | 131° |
| 2026-05-05 21:54 | 36.98935 | -90.56294 | 39767 ft | 601 kts | 131° |
| 2026-05-05 21:55 | 36.94335 | -90.48078 | 39772 ft | 601 kts | 131° |
| 2026-05-05 21:55 | 36.89547 | -90.39551 | 39776 ft | 601 kts | 131° |
| 2026-05-05 21:56 | 36.84751 | -90.31027 | 39783 ft | 600 kts | 131° |
| 2026-05-05 21:56 | 36.79957 | -90.22533 | 39789 ft | 600 kts | 131° |
| 2026-05-05 21:57 | 36.75153 | -90.14039 | 39773 ft | 599 kts | 131° |
| 2026-05-05 21:57 | 36.70370 | -90.05606 | 39763 ft | 598 kts | 131° |
| 2026-05-05 21:58 | 36.65555 | -89.97134 | 39759 ft | 598 kts | 131° |
| 2026-05-05 21:58 | 36.60740 | -89.88688 | 39757 ft | 598 kts | 131° |
| 2026-05-05 21:59 | 36.55914 | -89.80241 | 39758 ft | 599 kts | 131° |
| 2026-05-05 21:59 | 36.51067 | -89.71776 | 39753 ft | 599 kts | 131° |
| 2026-05-05 22:00 | 36.46234 | -89.63361 | 39751 ft | 600 kts | 131° |
| 2026-05-05 22:00 | 36.41355 | -89.54885 | 39745 ft | 601 kts | 131° |
| 2026-05-05 22:01 | 36.36509 | -89.46486 | 39750 ft | 602 kts | 131° |
| 2026-05-05 22:01 | 36.31640 | -89.38067 | 39757 ft | 602 kts | 131° |
| 2026-05-05 22:02 | 36.26746 | -89.29628 | 39766 ft | 601 kts | 131° |
| 2026-05-05 22:02 | 36.21856 | -89.21216 | 39762 ft | 601 kts | 131° |
| 2026-05-05 22:03 | 36.16962 | -89.12818 | 39777 ft | 602 kts | 131° |
| 2026-05-05 22:03 | 36.12106 | -89.04505 | 39773 ft | 603 kts | 131° |
| 2026-05-05 22:04 | 36.07170 | -88.96075 | 39770 ft | 603 kts | 131° |
| 2026-05-05 22:04 | 36.02229 | -88.87662 | 39768 ft | 602 kts | 131° |
| 2026-05-05 22:05 | 35.97314 | -88.79305 | 39785 ft | 605 kts | 131° |
| 2026-05-05 22:05 | 35.92354 | -88.70898 | 39798 ft | 604 kts | 131° |
| 2026-05-05 22:06 | 35.87414 | -88.62542 | 39799 ft | 603 kts | 131° |
| 2026-05-05 22:06 | 35.82494 | -88.54244 | 39804 ft | 603 kts | 131° |
| 2026-05-05 22:07 | 35.77571 | -88.45956 | 39805 ft | 602 kts | 131° |
| 2026-05-05 22:07 | 35.72608 | -88.37626 | 39816 ft | 603 kts | 131° |
| 2026-05-05 22:08 | 35.67673 | -88.29357 | 39815 ft | 602 kts | 131° |
| 2026-05-05 22:08 | 35.62708 | -88.21062 | 39819 ft | 601 kts | 131° |
| 2026-05-05 22:09 | 35.57746 | -88.12789 | 39812 ft | 601 kts | 131° |
| 2026-05-05 22:09 | 35.52769 | -88.04512 | 39812 ft | 601 kts | 130° |
| 2026-05-05 22:10 | 35.47805 | -87.96276 | 39807 ft | 600 kts | 130° |
| 2026-05-05 22:10 | 35.42817 | -87.88021 | 39805 ft | 600 kts | 130° |
| 2026-05-05 22:11 | 35.37918 | -87.79931 | 39810 ft | 600 kts | 130° |
| 2026-05-05 22:11 | 35.32896 | -87.71658 | 39827 ft | 600 kts | 130° |
| 2026-05-05 22:12 | 35.27962 | -87.63547 | 39829 ft | 600 kts | 130° |
| 2026-05-05 22:12 | 35.22959 | -87.55344 | 39840 ft | 599 kts | 130° |
| 2026-05-05 22:13 | 35.18104 | -87.47400 | 39844 ft | 599 kts | 130° |
| 2026-05-05 22:13 | 35.13145 | -87.39307 | 39854 ft | 600 kts | 130° |
| 2026-05-05 22:14 | 35.08150 | -87.31170 | 39853 ft | 600 kts | 130° |
| 2026-05-05 22:14 | 35.03193 | -87.23118 | 39860 ft | 599 kts | 130° |
| 2026-05-05 22:15 | 34.98205 | -87.15031 | 39859 ft | 600 kts | 130° |
| 2026-05-05 22:15 | 34.93245 | -87.07010 | 39872 ft | 600 kts | 130° |
| 2026-05-05 22:16 | 34.88153 | -86.98792 | 39886 ft | 599 kts | 130° |
| 2026-05-05 22:16 | 34.83985 | -86.92081 | 39891 ft | 599 kts | 130° |
| 2026-05-05 22:17 | 34.78108 | -86.82640 | 39900 ft | 599 kts | 130° |
| 2026-05-05 22:17 | 34.73109 | -86.74628 | 39912 ft | 598 kts | 130° |
| 2026-05-05 22:18 | 34.68949 | -86.67974 | 39907 ft | 598 kts | 130° |
| 2026-05-05 22:18 | 34.63092 | -86.58628 | 39912 ft | 598 kts | 130° |
| 2026-05-05 22:19 | 34.58886 | -86.51931 | 39903 ft | 597 kts | 130° |
| 2026-05-05 22:19 | 34.53702 | -86.43975 | 39906 ft | 592 kts | 139° |
| 2026-05-05 22:20 | 34.48047 | -86.36807 | 39868 ft | 592 kts | 137° |
| 2026-05-05 22:20 | 34.42482 | -86.29680 | 39883 ft | 591 kts | 138° |
| 2026-05-05 22:21 | 34.36827 | -86.22530 | 39901 ft | 591 kts | 137° |
| 2026-05-05 22:21 | 34.31167 | -86.15322 | 39798 ft | 594 kts | 139° |
| 2026-05-05 22:21 | 34.28333 | -86.11753 | 39900 ft | 601 kts | 139° |
| 2026-05-05 22:22 | 34.25374 | -86.08024 | 39902 ft | 606 kts | 138° |
| 2026-05-05 22:22 | 34.19584 | -86.00679 | 39904 ft | 603 kts | 138° |
| 2026-05-05 22:23 | 34.13762 | -85.93371 | 39892 ft | 602 kts | 138° |
| 2026-05-05 22:23 | 34.07954 | -85.86049 | 39899 ft | 601 kts | 138° |
| 2026-05-05 22:24 | 34.02197 | -85.78839 | 39899 ft | 602 kts | 138° |
| 2026-05-05 22:24 | 33.96385 | -85.71554 | 39907 ft | 602 kts | 138° |
| 2026-05-05 22:25 | 33.90569 | -85.64293 | 39905 ft | 602 kts | 138° |
| 2026-05-05 22:25 | 33.84772 | -85.57062 | 39912 ft | 602 kts | 138° |
| 2026-05-05 22:26 | 33.78950 | -85.49819 | 39922 ft | 602 kts | 138° |
| 2026-05-05 22:26 | 33.73136 | -85.42600 | 39947 ft | 602 kts | 138° |
| 2026-05-05 22:27 | 33.67286 | -85.35351 | 39980 ft | 602 kts | 138° |
| 2026-05-05 22:27 | 33.61562 | -85.28275 | 39989 ft | 601 kts | 138° |
| 2026-05-05 22:27 | 33.58614 | -85.24634 | 40236 ft | 599 kts | 137° |
| 2026-05-05 22:28 | 33.55785 | -85.21144 | 40113 ft | 595 kts | 137° |
| 2026-05-05 22:28 | 33.52910 | -85.17601 | 39991 ft | 590 kts | 137° |
| 2026-05-05 22:28 | 33.50091 | -85.14131 | 39977 ft | 584 kts | 137° |
| 2026-05-05 22:29 | 33.44458 | -85.07211 | 39960 ft | 582 kts | 137° |
| 2026-05-05 22:29 | 33.38790 | -85.00260 | 39944 ft | 588 kts | 137° |
| 2026-05-05 22:30 | 33.33065 | -84.93248 | 39959 ft | 589 kts | 137° |
| 2026-05-05 22:30 | 33.27344 | -84.86263 | 39958 ft | 588 kts | 137° |
| 2026-05-05 22:31 | 33.21620 | -84.79281 | 39958 ft | 587 kts | 137° |
| 2026-05-05 22:31 | 33.15911 | -84.72336 | 39953 ft | 586 kts | 137° |
| 2026-05-05 22:32 | 33.10200 | -84.65399 | 39948 ft | 586 kts | 137° |
| 2026-05-05 22:32 | 33.04501 | -84.58493 | 39947 ft | 586 kts | 137° |
| 2026-05-05 22:33 | 32.98782 | -84.51574 | 39938 ft | 586 kts | 137° |
| 2026-05-05 22:33 | 32.93062 | -84.44670 | 39944 ft | 586 kts | 137° |
| 2026-05-05 22:34 | 32.87320 | -84.37749 | 39941 ft | 586 kts | 137° |
| 2026-05-05 22:34 | 32.81611 | -84.30885 | 39941 ft | 586 kts | 138° |
| 2026-05-05 22:35 | 32.75869 | -84.23992 | 39936 ft | 585 kts | 138° |
| 2026-05-05 22:35 | 32.70157 | -84.17150 | 39940 ft | 585 kts | 138° |
| 2026-05-05 22:36 | 32.64433 | -84.10306 | 39941 ft | 584 kts | 138° |
| 2026-05-05 22:36 | 32.58696 | -84.03461 | 39957 ft | 584 kts | 138° |
| 2026-05-05 22:37 | 32.52987 | -83.96662 | 39966 ft | 583 kts | 138° |
| 2026-05-05 22:37 | 32.47250 | -83.89841 | 39969 ft | 583 kts | 138° |
| 2026-05-05 22:38 | 32.41524 | -83.83048 | 39971 ft | 582 kts | 138° |
| 2026-05-05 22:38 | 32.35799 | -83.76269 | 39968 ft | 581 kts | 138° |
| 2026-05-05 22:39 | 32.30064 | -83.69490 | 39957 ft | 580 kts | 138° |
| 2026-05-05 22:39 | 32.24382 | -83.62787 | 39951 ft | 579 kts | 138° |
| 2026-05-05 22:40 | 32.18667 | -83.56058 | 39935 ft | 579 kts | 139° |
| 2026-05-05 22:40 | 32.12968 | -83.49359 | 39936 ft | 580 kts | 139° |
| 2026-05-05 22:41 | 32.07235 | -83.42633 | 39927 ft | 579 kts | 139° |
| 2026-05-05 22:41 | 32.01528 | -83.35952 | 39944 ft | 579 kts | 139° |
| 2026-05-05 22:42 | 31.95836 | -83.29298 | 39945 ft | 578 kts | 139° |
| 2026-05-05 22:42 | 31.90119 | -83.22630 | 39965 ft | 577 kts | 139° |
| 2026-05-05 22:43 | 31.84433 | -83.16009 | 39969 ft | 577 kts | 139° |
| 2026-05-05 22:43 | 31.78705 | -83.09351 | 39972 ft | 576 kts | 139° |
| 2026-05-05 22:44 | 31.73032 | -83.02770 | 39963 ft | 576 kts | 139° |
| 2026-05-05 22:44 | 31.67380 | -82.96224 | 39970 ft | 575 kts | 139° |
| 2026-05-05 22:45 | 31.61699 | -82.89657 | 39973 ft | 575 kts | 139° |
| 2026-05-05 22:45 | 31.56029 | -82.83114 | 39990 ft | 574 kts | 140° |
| 2026-05-05 22:46 | 31.50381 | -82.76610 | 39985 ft | 573 kts | 140° |
| 2026-05-05 22:46 | 31.44647 | -82.70017 | 39984 ft | 573 kts | 140° |
| 2026-05-05 22:47 | 31.39027 | -82.63567 | 39954 ft | 571 kts | 140° |
| 2026-05-05 22:47 | 31.33347 | -82.57060 | 39967 ft | 571 kts | 140° |
| 2026-05-05 22:48 | 31.27662 | -82.50558 | 39969 ft | 570 kts | 140° |
| 2026-05-05 22:48 | 31.22014 | -82.44111 | 39969 ft | 570 kts | 140° |
| 2026-05-05 22:49 | 31.16338 | -82.37651 | 39587 ft | 574 kts | 137° |
| 2026-05-05 22:49 | 31.13443 | -82.34353 | 39709 ft | 583 kts | 137° |
| 2026-05-05 22:49 | 31.10509 | -82.31012 | 39827 ft | 592 kts | 137° |
| 2026-05-05 22:49 | 31.07564 | -82.27668 | 39963 ft | 599 kts | 137° |
| 2026-05-05 22:50 | 31.04559 | -82.24260 | 39985 ft | 603 kts | 137° |
| 2026-05-05 22:50 | 30.98569 | -82.17465 | 39979 ft | 599 kts | 137° |
| 2026-05-05 22:51 | 30.92586 | -82.10702 | 39976 ft | 598 kts | 137° |
| 2026-05-05 22:51 | 30.86615 | -82.03958 | 39983 ft | 598 kts | 137° |
| 2026-05-05 22:52 | 30.80659 | -81.97246 | 39987 ft | 598 kts | 138° |
| 2026-05-05 22:52 | 30.74684 | -81.90524 | 39982 ft | 599 kts | 137° |
| 2026-05-05 22:53 | 30.68758 | -81.83854 | 40375 ft | 578 kts | 141° |
| 2026-05-05 22:53 | 30.65890 | -81.80638 | 40269 ft | 572 kts | 141° |
| 2026-05-05 22:53 | 30.63085 | -81.77443 | 40147 ft | 570 kts | 135° |
| 2026-05-05 22:54 | 30.58487 | -81.70003 | 39997 ft | 565 kts | 127° |
| 2026-05-05 22:54 | 30.54226 | -81.62566 | 39994 ft | 562 kts | 128° |
| 2026-05-05 22:55 | 30.49832 | -81.54976 | 40006 ft | 570 kts | 128° |
| 2026-05-05 22:55 | 30.45424 | -81.47319 | 40018 ft | 571 kts | 128° |
| 2026-05-05 22:56 | 30.40989 | -81.39675 | 40011 ft | 569 kts | 128° |
| 2026-05-05 22:56 | 30.36578 | -81.32055 | 40017 ft | 568 kts | 128° |
| 2026-05-05 22:57 | 30.32185 | -81.24502 | 40003 ft | 567 kts | 128° |
| 2026-05-05 22:57 | 30.27761 | -81.16897 | 40006 ft | 566 kts | 128° |
| 2026-05-05 22:58 | 30.23393 | -81.09410 | 39994 ft | 565 kts | 128° |
| 2026-05-05 22:58 | 30.18977 | -81.01850 | 39991 ft | 564 kts | 128° |
| 2026-05-05 22:59 | 30.14578 | -80.94336 | 39984 ft | 562 kts | 129° |
| 2026-05-05 22:59 | 30.10231 | -80.86923 | 39993 ft | 561 kts | 129° |
| 2026-05-05 23:00 | 30.03651 | -80.75731 | 39998 ft | 561 kts | 129° |
| 2026-05-05 23:00 | 29.99266 | -80.68286 | 39998 ft | 559 kts | 129° |
| 2026-05-05 23:01 | 29.94911 | -80.60910 | 39998 ft | 559 kts | 129° |
| 2026-05-05 23:01 | 29.90537 | -80.53510 | 39993 ft | 557 kts | 129° |
| 2026-05-05 23:02 | 29.86171 | -80.46141 | 40003 ft | 556 kts | 129° |
| 2026-05-05 23:02 | 29.81811 | -80.38795 | 40010 ft | 555 kts | 129° |
| 2026-05-05 23:03 | 29.77453 | -80.31465 | 40014 ft | 555 kts | 129° |
| 2026-05-05 23:03 | 29.73081 | -80.24124 | 40009 ft | 553 kts | 129° |
| 2026-05-05 23:04 | 29.68769 | -80.16898 | 39565 ft | 550 kts | 128° |
| 2026-05-05 23:04 | 29.67298 | -80.14438 | 40042 ft | 547 kts | 129° |
| 2026-05-05 23:04 | 29.65170 | -80.10871 | 40021 ft | 544 kts | 129° |
| 2026-05-05 23:05 | 29.60858 | -80.03678 | 40012 ft | 547 kts | 129° |
| 2026-05-05 23:05 | 29.56518 | -79.96434 | 40017 ft | 550 kts | 129° |
| 2026-05-05 23:06 | 29.52193 | -79.89236 | 40019 ft | 550 kts | 129° |
| 2026-05-05 23:06 | 29.47850 | -79.82019 | 40008 ft | 550 kts | 129° |
| 2026-05-05 23:07 | 29.43487 | -79.74781 | 40007 ft | 551 kts | 129° |
| 2026-05-05 23:07 | 29.39123 | -79.67555 | 40012 ft | 551 kts | 129° |
| 2026-05-05 23:08 | 29.34775 | -79.60367 | 40013 ft | 551 kts | 129° |
| 2026-05-05 23:08 | 29.30395 | -79.53140 | 40011 ft | 551 kts | 129° |
| 2026-05-05 23:09 | 29.26009 | -79.45915 | 40009 ft | 551 kts | 129° |
| 2026-05-05 23:09 | 29.21636 | -79.38725 | 40012 ft | 552 kts | 129° |
| 2026-05-05 23:10 | 29.17252 | -79.31527 | 40005 ft | 553 kts | 129° |
| 2026-05-05 23:10 | 29.12855 | -79.24322 | 40013 ft | 553 kts | 129° |
| 2026-05-05 23:11 | 29.08444 | -79.17107 | 40011 ft | 554 kts | 129° |
| 2026-05-05 23:11 | 29.04009 | -79.09864 | 40017 ft | 555 kts | 129° |
| 2026-05-05 23:12 | 28.99568 | -79.02623 | 40008 ft | 555 kts | 129° |
| 2026-05-05 23:12 | 28.95128 | -78.95398 | 40011 ft | 555 kts | 129° |
| 2026-05-05 23:13 | 28.90720 | -78.88236 | 40007 ft | 556 kts | 130° |
| 2026-05-05 23:13 | 28.86244 | -78.80979 | 40007 ft | 557 kts | 130° |
| 2026-05-05 23:14 | 28.81779 | -78.73747 | 40009 ft | 557 kts | 130° |
| 2026-05-05 23:14 | 28.77299 | -78.66508 | 40009 ft | 558 kts | 130° |
| 2026-05-05 23:15 | 28.72848 | -78.59324 | 40007 ft | 557 kts | 130° |
| 2026-05-05 23:15 | 28.68380 | -78.52131 | 40011 ft | 557 kts | 130° |
| 2026-05-05 23:16 | 28.63900 | -78.44925 | 40005 ft | 558 kts | 130° |
| 2026-05-05 23:16 | 28.59398 | -78.37700 | 40009 ft | 558 kts | 130° |
| 2026-05-05 23:17 | 28.54927 | -78.30534 | 40005 ft | 558 kts | 130° |
| 2026-05-05 23:17 | 28.50390 | -78.23277 | 40017 ft | 559 kts | 130° |
| 2026-05-05 23:18 | 28.45880 | -78.16072 | 40005 ft | 559 kts | 130° |
| 2026-05-05 23:18 | 28.41386 | -78.08910 | 40003 ft | 560 kts | 130° |
| 2026-05-05 23:19 | 28.36860 | -78.01704 | 40001 ft | 560 kts | 130° |
| 2026-05-05 23:19 | 28.32351 | -77.94541 | 40012 ft | 560 kts | 130° |
| 2026-05-05 23:20 | 28.27806 | -77.87330 | 40004 ft | 560 kts | 130° |
| 2026-05-05 23:20 | 28.23250 | -77.80117 | 40010 ft | 561 kts | 130° |
| 2026-05-05 23:21 | 28.18699 | -77.72920 | 40003 ft | 561 kts | 130° |
| 2026-05-05 23:21 | 28.14145 | -77.65734 | 40010 ft | 562 kts | 131° |
| 2026-05-05 23:22 | 28.11705 | -77.62397 | 40045 ft | 553 kts | 142° |
| 2026-05-05 23:22 | 28.08908 | -77.59398 | 40013 ft | 551 kts | 143° |
| 2026-05-05 23:22 | 28.03265 | -77.53507 | 40016 ft | 552 kts | 143° |
| 2026-05-05 23:23 | 27.97633 | -77.47582 | 40012 ft | 552 kts | 143° |
| 2026-05-05 23:23 | 27.92016 | -77.41717 | 40003 ft | 552 kts | 143° |
| 2026-05-05 23:24 | 27.86382 | -77.35822 | 40001 ft | 552 kts | 143° |
| 2026-05-05 23:24 | 27.80749 | -77.29948 | 40001 ft | 553 kts | 143° |
| 2026-05-05 23:25 | 27.75068 | -77.24026 | 39996 ft | 553 kts | 143° |
| 2026-05-05 23:25 | 27.69405 | -77.18135 | 39997 ft | 554 kts | 143° |
| 2026-05-05 23:26 | 27.63731 | -77.12240 | 39997 ft | 553 kts | 143° |
| 2026-05-05 23:26 | 27.58078 | -77.06378 | 39991 ft | 555 kts | 143° |
| 2026-05-05 23:27 | 27.52388 | -77.00482 | 39993 ft | 555 kts | 143° |
| 2026-05-05 23:27 | 27.46697 | -76.94598 | 40005 ft | 556 kts | 143° |
| 2026-05-05 23:28 | 27.43844 | -76.91656 | 39882 ft | 558 kts | 139° |
| 2026-05-05 23:28 | 27.40961 | -76.88674 | 39998 ft | 567 kts | 139° |
| 2026-05-05 23:28 | 27.38016 | -76.85633 | 39995 ft | 578 kts | 139° |
| 2026-05-05 23:28 | 27.35023 | -76.82552 | 40004 ft | 588 kts | 139° |
| 2026-05-05 23:29 | 27.28986 | -76.76333 | 40005 ft | 594 kts | 139° |
| 2026-05-05 23:29 | 27.22890 | -76.70066 | 39999 ft | 591 kts | 139° |
| 2026-05-05 23:30 | 27.16829 | -76.63846 | 40003 ft | 591 kts | 139° |
| 2026-05-05 23:30 | 27.10743 | -76.57607 | 39999 ft | 590 kts | 139° |
| 2026-05-05 23:31 | 27.04687 | -76.51412 | 39994 ft | 590 kts | 139° |
| 2026-05-05 23:31 | 26.98642 | -76.45234 | 39992 ft | 590 kts | 139° |
| 2026-05-05 23:32 | 26.92580 | -76.39051 | 39987 ft | 590 kts | 139° |
| 2026-05-05 23:32 | 26.86478 | -76.32834 | 39984 ft | 590 kts | 139° |
| 2026-05-05 23:33 | 26.80411 | -76.26665 | 39983 ft | 590 kts | 139° |
| 2026-05-05 23:33 | 26.74337 | -76.20495 | 39980 ft | 589 kts | 139° |
| 2026-05-05 23:34 | 26.68300 | -76.14374 | 39981 ft | 589 kts | 139° |
| 2026-05-05 23:34 | 26.62193 | -76.08190 | 39981 ft | 589 kts | 139° |
| 2026-05-05 23:35 | 26.56160 | -76.02091 | 39981 ft | 588 kts | 139° |
| 2026-05-05 23:35 | 26.50040 | -75.95914 | 39981 ft | 588 kts | 139° |
| 2026-05-05 23:36 | 26.43995 | -75.89820 | 39982 ft | 588 kts | 139° |
| 2026-05-05 23:36 | 26.37939 | -75.83725 | 39984 ft | 588 kts | 139° |
| 2026-05-05 23:37 | 26.31860 | -75.77616 | 39984 ft | 587 kts | 139° |
| 2026-05-05 23:37 | 26.25776 | -75.71510 | 39980 ft | 587 kts | 139° |
| 2026-05-05 23:38 | 26.19704 | -75.65426 | 39982 ft | 586 kts | 140° |
| 2026-05-05 23:38 | 26.13668 | -75.59386 | 39978 ft | 586 kts | 140° |
| 2026-05-05 23:39 | 26.07614 | -75.53338 | 39980 ft | 585 kts | 140° |
| 2026-05-05 23:39 | 26.01548 | -75.47286 | 39982 ft | 585 kts | 140° |
| 2026-05-05 23:40 | 25.95495 | -75.41255 | 39982 ft | 585 kts | 140° |
| 2026-05-05 23:40 | 25.89410 | -75.35202 | 39986 ft | 585 kts | 140° |
| 2026-05-05 23:41 | 25.83346 | -75.29178 | 39980 ft | 585 kts | 140° |
| 2026-05-05 23:41 | 25.77279 | -75.23160 | 39978 ft | 584 kts | 140° |
| 2026-05-05 23:42 | 25.71252 | -75.17190 | 39980 ft | 584 kts | 140° |
| 2026-05-05 23:42 | 25.65180 | -75.11184 | 39982 ft | 584 kts | 140° |
| 2026-05-05 23:43 | 25.59106 | -75.05184 | 39988 ft | 584 kts | 140° |
| 2026-05-05 23:43 | 25.53050 | -74.99211 | 39986 ft | 583 kts | 140° |
| 2026-05-05 23:44 | 25.46980 | -74.93233 | 39990 ft | 583 kts | 140° |
| 2026-05-05 23:44 | 25.40920 | -74.87273 | 39990 ft | 583 kts | 140° |
| 2026-05-05 23:45 | 25.34903 | -74.81363 | 39991 ft | 582 kts | 140° |
| 2026-05-05 23:45 | 25.28847 | -74.75423 | 39990 ft | 582 kts | 140° |
| 2026-05-05 23:46 | 25.22763 | -74.69464 | 39994 ft | 581 kts | 140° |
| 2026-05-05 23:46 | 25.16752 | -74.63585 | 39995 ft | 580 kts | 140° |
| 2026-05-05 23:47 | 25.10699 | -74.57672 | 39991 ft | 580 kts | 140° |
| 2026-05-05 23:47 | 25.04661 | -74.51783 | 39993 ft | 579 kts | 140° |
| 2026-05-05 23:48 | 24.98623 | -74.45901 | 40006 ft | 579 kts | 140° |
| 2026-05-05 23:48 | 24.92621 | -74.40063 | 40004 ft | 578 kts | 140° |
| 2026-05-05 23:49 | 24.86586 | -74.34200 | 39995 ft | 577 kts | 140° |
| 2026-05-05 23:49 | 24.80564 | -74.28358 | 39997 ft | 576 kts | 140° |
| 2026-05-05 23:50 | 24.74553 | -74.22535 | 39992 ft | 575 kts | 140° |
| 2026-05-05 23:50 | 24.69562 | -74.17706 | 39993 ft | 575 kts | 140° |
| 2026-05-05 23:51 | 24.63549 | -74.11894 | 39996 ft | 575 kts | 140° |
| 2026-05-05 23:51 | 24.57528 | -74.06083 | 39996 ft | 575 kts | 140° |
| 2026-05-05 23:52 | 24.51545 | -74.00316 | 39995 ft | 574 kts | 140° |
| 2026-05-05 23:52 | 24.45528 | -73.94524 | 40001 ft | 573 kts | 140° |
| 2026-05-05 23:53 | 24.39549 | -73.88777 | 39996 ft | 573 kts | 140° |
| 2026-05-05 23:53 | 24.33523 | -73.82991 | 39994 ft | 572 kts | 140° |
| 2026-05-05 23:54 | 24.27555 | -73.77269 | 39995 ft | 571 kts | 140° |
| 2026-05-05 23:54 | 24.21586 | -73.71554 | 39995 ft | 570 kts | 140° |
| 2026-05-05 23:55 | 24.15623 | -73.65851 | 39998 ft | 569 kts | 140° |
| 2026-05-05 23:55 | 24.09648 | -73.60145 | 39998 ft | 569 kts | 140° |
| 2026-05-05 23:56 | 24.03682 | -73.54453 | 40003 ft | 567 kts | 140° |
| 2026-05-05 23:56 | 23.97784 | -73.48834 | 39993 ft | 566 kts | 140° |
| 2026-05-05 23:57 | 23.91845 | -73.43184 | 39998 ft | 564 kts | 140° |
| 2026-05-05 23:57 | 23.85912 | -73.37546 | 39998 ft | 563 kts | 140° |
| 2026-05-05 23:58 | 23.79994 | -73.31929 | 40001 ft | 563 kts | 140° |
| 2026-05-05 23:58 | 23.74116 | -73.26358 | 39995 ft | 563 kts | 140° |
| 2026-05-05 23:59 | 23.68204 | -73.20762 | 40000 ft | 562 kts | 140° |
| 2026-05-05 23:59 | 23.62313 | -73.15191 | 39998 ft | 560 kts | 140° |
| 2026-05-06 00:00 | 23.56412 | -73.09618 | 40012 ft | 560 kts | 140° |
| 2026-05-06 00:00 | 23.50516 | -73.04058 | 40006 ft | 559 kts | 140° |
| 2026-05-06 00:01 | 23.44629 | -72.98512 | 40008 ft | 558 kts | 140° |
| 2026-05-06 00:01 | 23.38764 | -72.92994 | 40004 ft | 557 kts | 140° |
| 2026-05-06 00:02 | 23.32926 | -72.87508 | 39998 ft | 555 kts | 140° |
| 2026-05-06 00:02 | 23.27094 | -72.82034 | 39997 ft | 553 kts | 140° |
| 2026-05-06 00:03 | 23.21268 | -72.76573 | 39997 ft | 552 kts | 140° |
| 2026-05-06 00:03 | 23.15474 | -72.71147 | 40000 ft | 552 kts | 140° |
| 2026-05-06 00:04 | 23.09636 | -72.65687 | 39992 ft | 552 kts | 140° |
| 2026-05-06 00:04 | 23.03793 | -72.60229 | 40007 ft | 552 kts | 140° |
| 2026-05-06 00:05 | 22.95108 | -72.52128 | 40010 ft | 549 kts | 140° |
| 2026-05-06 00:06 | 22.89306 | -72.46724 | 40003 ft | 548 kts | 140° |
| 2026-05-06 00:06 | 22.83533 | -72.41353 | 40006 ft | 548 kts | 140° |
| 2026-05-06 00:07 | 22.77739 | -72.35970 | 40003 ft | 547 kts | 140° |
| 2026-05-06 00:07 | 22.72002 | -72.30645 | 40004 ft | 546 kts | 140° |
| 2026-05-06 00:08 | 22.66238 | -72.25301 | 40004 ft | 545 kts | 140° |
| 2026-05-06 00:08 | 22.60467 | -72.19957 | 39998 ft | 544 kts | 140° |
| 2026-05-06 00:09 | 22.54714 | -72.14636 | 39998 ft | 543 kts | 140° |
| 2026-05-06 00:09 | 22.48995 | -72.09352 | 39998 ft | 542 kts | 140° |
| 2026-05-06 00:10 | 22.43266 | -72.04065 | 40001 ft | 541 kts | 140° |
| 2026-05-06 00:10 | 22.37532 | -71.98779 | 39999 ft | 540 kts | 140° |
| 2026-05-06 00:11 | 22.31819 | -71.93518 | 40003 ft | 539 kts | 141° |
| 2026-05-06 00:11 | 22.26121 | -71.88278 | 39997 ft | 538 kts | 141° |
| 2026-05-06 00:12 | 22.20462 | -71.83079 | 40000 ft | 536 kts | 141° |
| 2026-05-06 00:12 | 22.14791 | -71.77874 | 40000 ft | 535 kts | 141° |
| 2026-05-06 00:13 | 22.09111 | -71.72667 | 39996 ft | 534 kts | 141° |
| 2026-05-06 00:13 | 22.03443 | -71.67477 | 39998 ft | 533 kts | 141° |
| 2026-05-06 00:14 | 21.97813 | -71.62327 | 40001 ft | 533 kts | 141° |
| 2026-05-06 00:14 | 21.92175 | -71.57175 | 40001 ft | 532 kts | 142° |
| 2026-05-06 00:15 | 21.86530 | -71.52022 | 39995 ft | 531 kts | 142° |
| 2026-05-06 00:15 | 21.80902 | -71.46891 | 39996 ft | 531 kts | 142° |
| 2026-05-06 00:16 | 21.75355 | -71.41838 | 39997 ft | 530 kts | 142° |
| 2026-05-06 00:16 | 21.69759 | -71.36747 | 39995 ft | 529 kts | 142° |
| 2026-05-06 00:17 | 21.64147 | -71.31646 | 39995 ft | 530 kts | 142° |
| 2026-05-06 00:17 | 21.58521 | -71.26537 | 39999 ft | 529 kts | 142° |
| 2026-05-06 00:18 | 21.52886 | -71.21427 | 39995 ft | 529 kts | 143° |
| 2026-05-06 00:18 | 21.47256 | -71.16326 | 39992 ft | 529 kts | 143° |
| 2026-05-06 00:19 | 21.41625 | -71.11243 | 39995 ft | 529 kts | 143° |
| 2026-05-06 00:19 | 21.35957 | -71.06284 | 39991 ft | 528 kts | 144° |
| 2026-05-06 00:20 | 21.30312 | -71.01260 | 39992 ft | 529 kts | 143° |
| 2026-05-06 00:20 | 21.24618 | -70.96254 | 39993 ft | 528 kts | 144° |
| 2026-05-06 00:21 | 21.18941 | -70.91236 | 39993 ft | 529 kts | 144° |
| 2026-05-06 00:21 | 21.13242 | -70.86220 | 39993 ft | 529 kts | 144° |
| 2026-05-06 00:22 | 21.07568 | -70.81225 | 39989 ft | 529 kts | 144° |
| 2026-05-06 00:22 | 21.01879 | -70.76223 | 39987 ft | 530 kts | 144° |
| 2026-05-06 00:23 | 20.96167 | -70.71207 | 39990 ft | 531 kts | 144° |
| 2026-05-06 00:23 | 20.90487 | -70.66222 | 39990 ft | 531 kts | 144° |
| 2026-05-06 00:24 | 20.84765 | -70.61207 | 39991 ft | 530 kts | 144° |
| 2026-05-06 00:24 | 20.79043 | -70.56196 | 39988 ft | 530 kts | 144° |
| 2026-05-06 00:25 | 20.73331 | -70.51199 | 39995 ft | 530 kts | 144° |
| 2026-05-06 00:25 | 20.67625 | -70.46213 | 39985 ft | 529 kts | 144° |
| 2026-05-06 00:26 | 20.61946 | -70.41255 | 39989 ft | 529 kts | 144° |
| 2026-05-06 00:26 | 20.56242 | -70.36280 | 39987 ft | 530 kts | 144° |
| 2026-05-06 00:27 | 20.50531 | -70.31304 | 39986 ft | 530 kts | 144° |
| 2026-05-06 00:27 | 20.44803 | -70.26318 | 39984 ft | 529 kts | 144° |
| 2026-05-06 00:28 | 20.39105 | -70.21364 | 40001 ft | 529 kts | 144° |
| 2026-05-06 00:28 | 20.33399 | -70.16407 | 39994 ft | 529 kts | 144° |
| 2026-05-06 00:29 | 20.27737 | -70.11493 | 39994 ft | 528 kts | 144° |
| 2026-05-06 00:29 | 20.22013 | -70.06530 | 39997 ft | 529 kts | 144° |
| 2026-05-06 00:30 | 20.16308 | -70.01589 | 39986 ft | 529 kts | 144° |
| 2026-05-06 00:30 | 20.10581 | -69.96633 | 39989 ft | 528 kts | 144° |